Waskom, Texas
Current Conditions -  °F | °C
As of 12:56 PM on Thursday 27 Nov 2014 (Local Time) from KSHV Reporting Station
Clear Clear  
Wind Chill: 55°   Ceiling: Unl
Heat Index: 55°   Visibility: 10mi
Dew Point: 26°   Wind: 6mph
Humidity: 33%   Direction: 40°NE
Pressure: 30.48"   Gusts: NA
Location:  32.48°N, 94.06°W
Report Text: KSHV 271856Z 04005KT 10SM CLR 13/M03 A3048 RMK AO2 SLP320 T01281033
Loading
Personal Weather Stations






























Interactive Weather Map New forecast layout! Learn more

10-Day Weather Forecast

Advertisements
Track Severe Weather on mobile